sensor_id;sensor_type;location;lat;lon;timestamp;P1;durP1;ratioP1;P2;durP2;ratioP2
71800;SDS011;59647;55.838;37.292;2023-05-29T00:01:59;4.32;;;1.92;;
71800;SDS011;59647;55.838;37.292;2023-05-29T00:04:26;9.80;;;1.83;;
71800;SDS011;59647;55.838;37.292;2023-05-29T00:06:53;5.18;;;1.63;;
71800;SDS011;59647;55.838;37.292;2023-05-29T00:09:19;8.60;;;2.15;;
71800;SDS011;59647;55.838;37.292;2023-05-29T00:11:45;10.05;;;1.70;;
71800;SDS011;59647;55.838;37.292;2023-05-29T00:14:16;3.85;;;1.50;;
71800;SDS011;59647;55.838;37.292;2023-05-29T00:16:45;2.80;;;1.50;;
71800;SDS011;59647;55.838;37.292;2023-05-29T00:19:12;6.20;;;2.17;;
71800;SDS011;59647;55.838;37.292;2023-05-29T00:21:40;8.27;;;2.47;;
71800;SDS011;59647;55.838;37.292;2023-05-29T00:24:06;5.40;;;1.63;;
71800;SDS011;59647;55.838;37.292;2023-05-29T00:26:32;3.50;;;1.63;;
71800;SDS011;59647;55.838;37.292;2023-05-29T00:28:58;4.32;;;1.88;;
71800;SDS011;59647;55.838;37.292;2023-05-29T00:31:24;5.32;;;1.92;;
71800;SDS011;59647;55.838;37.292;2023-05-29T00:33:51;4.40;;;2.22;;
71800;SDS011;59647;55.838;37.292;2023-05-29T00:36:17;5.25;;;2.10;;
71800;SDS011;59647;55.838;37.292;2023-05-29T00:38:44;6.35;;;2.30;;
71800;SDS011;59647;55.838;37.292;2023-05-29T00:41:14;5.07;;;2.35;;
71800;SDS011;59647;55.838;37.292;2023-05-29T00:43:42;2.65;;;1.60;;
71800;SDS011;59647;55.838;37.292;2023-05-29T00:46:09;7.45;;;2.05;;
71800;SDS011;59647;55.838;37.292;2023-05-29T00:48:38;4.93;;;1.88;;
71800;SDS011;59647;55.838;37.292;2023-05-29T00:51:04;4.28;;;2.00;;
71800;SDS011;59647;55.838;37.292;2023-05-29T00:53:32;3.00;;;1.70;;
71800;SDS011;59647;55.838;37.292;2023-05-29T00:55:59;3.88;;;1.40;;
71800;SDS011;59647;55.838;37.292;2023-05-29T00:58:27;4.45;;;1.77;;
71800;SDS011;59647;55.838;37.292;2023-05-29T01:00:53;3.00;;;1.67;;
71800;SDS011;59647;55.838;37.292;2023-05-29T01:03:19;11.25;;;2.10;;
71800;SDS011;59647;55.838;37.292;2023-05-29T01:05:48;3.17;;;1.60;;
71800;SDS011;59647;55.838;37.292;2023-05-29T01:08:14;3.67;;;1.77;;
71800;SDS011;59647;55.838;37.292;2023-05-29T01:10:40;4.35;;;2.08;;
71800;SDS011;59647;55.838;37.292;2023-05-29T01:13:16;3.30;;;1.63;;
71800;SDS011;59647;55.838;37.292;2023-05-29T01:21:42;4.60;;;2.08;;
71800;SDS011;59647;55.838;37.292;2023-05-29T01:27:05;4.68;;;1.80;;
71800;SDS011;59647;55.838;37.292;2023-05-29T01:29:39;3.73;;;1.70;;
71800;SDS011;59647;55.838;37.292;2023-05-29T01:32:09;4.50;;;2.10;;
71800;SDS011;59647;55.838;37.292;2023-05-29T01:34:37;5.80;;;2.78;;
71800;SDS011;59647;55.838;37.292;2023-05-29T01:37:03;5.88;;;1.38;;
71800;SDS011;59647;55.838;37.292;2023-05-29T01:39:31;3.55;;;1.42;;
71800;SDS011;59647;55.838;37.292;2023-05-29T01:41:59;3.15;;;1.58;;
71800;SDS011;59647;55.838;37.292;2023-05-29T01:44:27;3.33;;;2.00;;
71800;SDS011;59647;55.838;37.292;2023-05-29T01:46:59;3.58;;;1.40;;
71800;SDS011;59647;55.838;37.292;2023-05-29T01:50:23;3.70;;;1.42;;
71800;SDS011;59647;55.838;37.292;2023-05-29T01:52:50;4.28;;;1.40;;
71800;SDS011;59647;55.838;37.292;2023-05-29T01:55:17;3.15;;;1.45;;
71800;SDS011;59647;55.838;37.292;2023-05-29T01:57:44;2.83;;;1.38;;
71800;SDS011;59647;55.838;37.292;2023-05-29T02:00:12;8.95;;;2.75;;
71800;SDS011;59647;55.838;37.292;2023-05-29T02:02:42;7.57;;;1.80;;
71800;SDS011;59647;55.838;37.292;2023-05-29T02:05:11;3.78;;;1.42;;
71800;SDS011;59647;55.838;37.292;2023-05-29T02:07:38;4.32;;;1.67;;
71800;SDS011;59647;55.838;37.292;2023-05-29T02:10:07;4.55;;;2.00;;
71800;SDS011;59647;55.838;37.292;2023-05-29T02:12:35;2.88;;;1.70;;
71800;SDS011;59647;55.838;37.292;2023-05-29T02:15:02;8.48;;;1.90;;
71800;SDS011;59647;55.838;37.292;2023-05-29T02:17:34;3.38;;;1.50;;
71800;SDS011;59647;55.838;37.292;2023-05-29T02:20:02;4.32;;;1.98;;
71800;SDS011;59647;55.838;37.292;2023-05-29T02:22:31;5.25;;;1.63;;
71800;SDS011;59647;55.838;37.292;2023-05-29T02:24:58;4.38;;;1.95;;
71800;SDS011;59647;55.838;37.292;2023-05-29T02:27:26;8.30;;;2.05;;
71800;SDS011;59647;55.838;37.292;2023-05-29T02:29:52;3.90;;;1.60;;
71800;SDS011;59647;55.838;37.292;2023-05-29T02:32:21;5.70;;;1.50;;
71800;SDS011;59647;55.838;37.292;2023-05-29T02:34:48;3.67;;;1.67;;
71800;SDS011;59647;55.838;37.292;2023-05-29T02:37:15;9.43;;;1.88;;
71800;SDS011;59647;55.838;37.292;2023-05-29T02:39:42;3.72;;;1.50;;
71800;SDS011;59647;55.838;37.292;2023-05-29T02:42:09;3.13;;;1.45;;
71800;SDS011;59647;55.838;37.292;2023-05-29T02:44:35;4.32;;;1.75;;
71800;SDS011;59647;55.838;37.292;2023-05-29T02:47:01;5.10;;;2.40;;
71800;SDS011;59647;55.838;37.292;2023-05-29T02:49:26;3.50;;;1.90;;
71800;SDS011;59647;55.838;37.292;2023-05-29T02:51:53;5.95;;;1.88;;
71800;SDS011;59647;55.838;37.292;2023-05-29T02:54:25;5.22;;;1.58;;
71800;SDS011;59647;55.838;37.292;2023-05-29T02:56:52;4.38;;;1.70;;
71800;SDS011;59647;55.838;37.292;2023-05-29T02:59:18;10.13;;;1.95;;
71800;SDS011;59647;55.838;37.292;2023-05-29T03:01:44;5.68;;;1.48;;
71800;SDS011;59647;55.838;37.292;2023-05-29T03:04:13;4.60;;;1.77;;
71800;SDS011;59647;55.838;37.292;2023-05-29T03:06:40;3.97;;;1.65;;
71800;SDS011;59647;55.838;37.292;2023-05-29T03:09:06;9.43;;;1.70;;
71800;SDS011;59647;55.838;37.292;2023-05-29T03:11:33;3.30;;;1.60;;
71800;SDS011;59647;55.838;37.292;2023-05-29T03:14:01;8.20;;;1.85;;
71800;SDS011;59647;55.838;37.292;2023-05-29T03:16:27;3.40;;;1.55;;
71800;SDS011;59647;55.838;37.292;2023-05-29T03:18:55;2.72;;;1.60;;
71800;SDS011;59647;55.838;37.292;2023-05-29T03:21:21;5.93;;;1.80;;
71800;SDS011;59647;55.838;37.292;2023-05-29T03:23:47;7.18;;;2.45;;
71800;SDS011;59647;55.838;37.292;2023-05-29T03:26:13;3.72;;;1.42;;
71800;SDS011;59647;55.838;37.292;2023-05-29T03:28:42;7.70;;;1.35;;
71800;SDS011;59647;55.838;37.292;2023-05-29T03:31:09;3.45;;;1.60;;
71800;SDS011;59647;55.838;37.292;2023-05-29T03:33:35;3.03;;;1.50;;
71800;SDS011;59647;55.838;37.292;2023-05-29T03:36:13;4.32;;;1.25;;
71800;SDS011;59647;55.838;37.292;2023-05-29T03:38:43;3.78;;;1.33;;
71800;SDS011;59647;55.838;37.292;2023-05-29T03:41:09;3.90;;;1.58;;
71800;SDS011;59647;55.838;37.292;2023-05-29T03:43:36;4.90;;;1.27;;
71800;SDS011;59647;55.838;37.292;2023-05-29T03:46:02;4.18;;;1.30;;
71800;SDS011;59647;55.838;37.292;2023-05-29T03:48:30;5.70;;;1.50;;
71800;SDS011;59647;55.838;37.292;2023-05-29T03:50:56;3.88;;;1.30;;
71800;SDS011;59647;55.838;37.292;2023-05-29T03:53:29;2.85;;;1.40;;
71800;SDS011;59647;55.838;37.292;2023-05-29T03:55:56;3.65;;;1.77;;
71800;SDS011;59647;55.838;37.292;2023-05-29T03:58:22;3.92;;;1.25;;
71800;SDS011;59647;55.838;37.292;2023-05-29T04:00:49;5.18;;;1.35;;
71800;SDS011;59647;55.838;37.292;2023-05-29T04:03:17;5.05;;;1.35;;
71800;SDS011;59647;55.838;37.292;2023-05-29T04:05:46;3.55;;;1.40;;
71800;SDS011;59647;55.838;37.292;2023-05-29T04:08:12;3.83;;;2.10;;
71800;SDS011;59647;55.838;37.292;2023-05-29T04:10:39;5.15;;;1.30;;
71800;SDS011;59647;55.838;37.292;2023-05-29T04:13:05;5.10;;;1.58;;
71800;SDS011;59647;55.838;37.292;2023-05-29T04:15:33;3.63;;;1.42;;
71800;SDS011;59647;55.838;37.292;2023-05-29T04:18:00;2.72;;;1.38;;
71800;SDS011;59647;55.838;37.292;2023-05-29T04:20:25;2.53;;;1.13;;
71800;SDS011;59647;55.838;37.292;2023-05-29T04:22:51;3.08;;;1.15;;
71800;SDS011;59647;55.838;37.292;2023-05-29T04:25:19;4.65;;;1.27;;
71800;SDS011;59647;55.838;37.292;2023-05-29T04:27:48;5.80;;;1.38;;
71800;SDS011;59647;55.838;37.292;2023-05-29T04:30:17;2.35;;;1.23;;
71800;SDS011;59647;55.838;37.292;2023-05-29T04:32:46;4.03;;;1.80;;
71800;SDS011;59647;55.838;37.292;2023-05-29T04:35:15;7.22;;;1.33;;
71800;SDS011;59647;55.838;37.292;2023-05-29T04:37:54;2.95;;;1.42;;
71800;SDS011;59647;55.838;37.292;2023-05-29T04:40:41;3.80;;;1.42;;
71800;SDS011;59647;55.838;37.292;2023-05-29T04:43:15;3.38;;;1.20;;
71800;SDS011;59647;55.838;37.292;2023-05-29T04:45:57;3.80;;;1.20;;
71800;SDS011;59647;55.838;37.292;2023-05-29T04:48:25;4.45;;;1.60;;
71800;SDS011;59647;55.838;37.292;2023-05-29T04:50:51;2.60;;;1.02;;
71800;SDS011;59647;55.838;37.292;2023-05-29T04:53:19;4.53;;;1.20;;
71800;SDS011;59647;55.838;37.292;2023-05-29T04:55:48;3.45;;;1.33;;
71800;SDS011;59647;55.838;37.292;2023-05-29T04:58:15;1.70;;;1.00;;
71800;SDS011;59647;55.838;37.292;2023-05-29T05:00:44;2.55;;;1.00;;
71800;SDS011;59647;55.838;37.292;2023-05-29T05:03:11;3.65;;;0.80;;
71800;SDS011;59647;55.838;37.292;2023-05-29T05:05:43;3.88;;;1.20;;
71800;SDS011;59647;55.838;37.292;2023-05-29T05:08:09;3.08;;;1.30;;
71800;SDS011;59647;55.838;37.292;2023-05-29T05:10:40;2.47;;;1.33;;
71800;SDS011;59647;55.838;37.292;2023-05-29T05:13:07;3.65;;;0.80;;
71800;SDS011;59647;55.838;37.292;2023-05-29T05:15:36;2.58;;;1.10;;
71800;SDS011;59647;55.838;37.292;2023-05-29T05:18:03;4.13;;;1.50;;
71800;SDS011;59647;55.838;37.292;2023-05-29T05:20:31;3.92;;;1.52;;
71800;SDS011;59647;55.838;37.292;2023-05-29T05:22:59;6.03;;;1.23;;
71800;SDS011;59647;55.838;37.292;2023-05-29T05:25:27;3.92;;;1.13;;
71800;SDS011;59647;55.838;37.292;2023-05-29T05:27:55;2.17;;;0.98;;
71800;SDS011;59647;55.838;37.292;2023-05-29T05:30:23;5.68;;;1.10;;
71800;SDS011;59647;55.838;37.292;2023-05-29T05:32:49;1.52;;;0.70;;
71800;SDS011;59647;55.838;37.292;2023-05-29T05:35:17;1.70;;;0.85;;
71800;SDS011;59647;55.838;37.292;2023-05-29T05:37:45;4.13;;;1.20;;
71800;SDS011;59647;55.838;37.292;2023-05-29T05:40:15;3.42;;;1.17;;
71800;SDS011;59647;55.838;37.292;2023-05-29T05:42:53;2.72;;;1.00;;
71800;SDS011;59647;55.838;37.292;2023-05-29T05:47:53;3.65;;;0.90;;
71800;SDS011;59647;55.838;37.292;2023-05-29T05:50:22;2.10;;;1.00;;
71800;SDS011;59647;55.838;37.292;2023-05-29T05:52:48;2.45;;;0.80;;
71800;SDS011;59647;55.838;37.292;2023-05-29T05:55:16;1.63;;;0.93;;
71800;SDS011;59647;55.838;37.292;2023-05-29T05:57:44;3.55;;;1.08;;
71800;SDS011;59647;55.838;37.292;2023-05-29T06:00:12;3.83;;;1.10;;
71800;SDS011;59647;55.838;37.292;2023-05-29T06:02:44;1.60;;;0.80;;
71800;SDS011;59647;55.838;37.292;2023-05-29T06:05:23;2.85;;;0.70;;
71800;SDS011;59647;55.838;37.292;2023-05-29T06:07:51;2.20;;;1.00;;
71800;SDS011;59647;55.838;37.292;2023-05-29T06:10:18;2.42;;;0.80;;
71800;SDS011;59647;55.838;37.292;2023-05-29T06:12:46;1.83;;;0.63;;
71800;SDS011;59647;55.838;37.292;2023-05-29T06:15:21;1.05;;;0.70;;
71800;SDS011;59647;55.838;37.292;2023-05-29T06:17:47;3.28;;;0.80;;
71800;SDS011;59647;55.838;37.292;2023-05-29T06:20:16;2.30;;;0.90;;
71800;SDS011;59647;55.838;37.292;2023-05-29T06:22:42;2.17;;;0.73;;
71800;SDS011;59647;55.838;37.292;2023-05-29T06:25:09;1.23;;;0.60;;
71800;SDS011;59647;55.838;37.292;2023-05-29T06:27:35;3.60;;;0.70;;
71800;SDS011;59647;55.838;37.292;2023-05-29T06:30:02;1.63;;;0.70;;
71800;SDS011;59647;55.838;37.292;2023-05-29T06:32:30;3.33;;;0.70;;
71800;SDS011;59647;55.838;37.292;2023-05-29T06:34:59;1.52;;;0.70;;
71800;SDS011;59647;55.838;37.292;2023-05-29T06:37:25;1.40;;;1.02;;
71800;SDS011;59647;55.838;37.292;2023-05-29T06:39:51;4.75;;;1.27;;
71800;SDS011;59647;55.838;37.292;2023-05-29T06:42:17;2.03;;;1.02;;
71800;SDS011;59647;55.838;37.292;2023-05-29T06:44:43;1.60;;;0.80;;
71800;SDS011;59647;55.838;37.292;2023-05-29T06:47:09;1.85;;;0.80;;
71800;SDS011;59647;55.838;37.292;2023-05-29T06:49:35;3.63;;;1.67;;
71800;SDS011;59647;55.838;37.292;2023-05-29T06:52:03;6.75;;;1.38;;
71800;SDS011;59647;55.838;37.292;2023-05-29T06:54:50;5.97;;;1.27;;
71800;SDS011;59647;55.838;37.292;2023-05-29T06:57:16;2.03;;;0.98;;
71800;SDS011;59647;55.838;37.292;2023-05-29T06:59:43;4.75;;;1.20;;
71800;SDS011;59647;55.838;37.292;2023-05-29T07:02:10;2.15;;;0.93;;
71800;SDS011;59647;55.838;37.292;2023-05-29T07:04:55;3.60;;;0.95;;
71800;SDS011;59647;55.838;37.292;2023-05-29T07:07:21;2.55;;;1.05;;
71800;SDS011;59647;55.838;37.292;2023-05-29T07:09:49;5.78;;;1.13;;
71800;SDS011;59647;55.838;37.292;2023-05-29T07:12:17;5.40;;;1.67;;
71800;SDS011;59647;55.838;37.292;2023-05-29T07:14:43;3.08;;;1.20;;
71800;SDS011;59647;55.838;37.292;2023-05-29T07:17:09;2.00;;;1.20;;
71800;SDS011;59647;55.838;37.292;2023-05-29T07:19:37;9.35;;;1.38;;
71800;SDS011;59647;55.838;37.292;2023-05-29T07:22:09;7.05;;;1.05;;
71800;SDS011;59647;55.838;37.292;2023-05-29T07:24:36;3.65;;;1.40;;
71800;SDS011;59647;55.838;37.292;2023-05-29T07:27:05;10.38;;;1.75;;
71800;SDS011;59647;55.838;37.292;2023-05-29T07:29:32;3.97;;;1.10;;
71800;SDS011;59647;55.838;37.292;2023-05-29T07:32:02;2.97;;;1.15;;
71800;SDS011;59647;55.838;37.292;2023-05-29T07:34:31;2.63;;;1.00;;
71800;SDS011;59647;55.838;37.292;2023-05-29T07:37:02;9.73;;;1.30;;
71800;SDS011;59647;55.838;37.292;2023-05-29T07:39:37;3.88;;;0.80;;
71800;SDS011;59647;55.838;37.292;2023-05-29T07:42:14;3.20;;;0.88;;
71800;SDS011;59647;55.838;37.292;2023-05-29T07:44:42;6.50;;;1.35;;
71800;SDS011;59647;55.838;37.292;2023-05-29T07:47:11;2.88;;;0.77;;
71800;SDS011;59647;55.838;37.292;2023-05-29T07:49:45;8.48;;;1.13;;
71800;SDS011;59647;55.838;37.292;2023-05-29T07:52:14;13.88;;;2.70;;
71800;SDS011;59647;55.838;37.292;2023-05-29T07:54:44;1.85;;;0.88;;
71800;SDS011;59647;55.838;37.292;2023-05-29T07:57:12;2.78;;;0.88;;
71800;SDS011;59647;55.838;37.292;2023-05-29T07:59:44;3.08;;;1.15;;
71800;SDS011;59647;55.838;37.292;2023-05-29T08:02:14;9.98;;;1.27;;
71800;SDS011;59647;55.838;37.292;2023-05-29T08:04:54;3.22;;;1.00;;
71800;SDS011;59647;55.838;37.292;2023-05-29T08:09:57;10.65;;;1.45;;
71800;SDS011;59647;55.838;37.292;2023-05-29T08:12:24;3.97;;;0.75;;
71800;SDS011;59647;55.838;37.292;2023-05-29T08:14:53;9.98;;;1.05;;
71800;SDS011;59647;55.838;37.292;2023-05-29T08:17:19;4.55;;;1.20;;
71800;SDS011;59647;55.838;37.292;2023-05-29T08:19:46;4.65;;;0.80;;
71800;SDS011;59647;55.838;37.292;2023-05-29T08:22:14;1.50;;;0.80;;
71800;SDS011;59647;55.838;37.292;2023-05-29T08:24:43;1.08;;;0.70;;
71800;SDS011;59647;55.838;37.292;2023-05-29T08:27:09;1.95;;;0.80;;
71800;SDS011;59647;55.838;37.292;2023-05-29T08:29:35;7.25;;;1.05;;
71800;SDS011;59647;55.838;37.292;2023-05-29T08:32:02;1.35;;;0.73;;
71800;SDS011;59647;55.838;37.292;2023-05-29T08:34:29;4.85;;;0.88;;
71800;SDS011;59647;55.838;37.292;2023-05-29T08:36:56;1.42;;;0.80;;
71800;SDS011;59647;55.838;37.292;2023-05-29T08:39:23;2.25;;;0.77;;
71800;SDS011;59647;55.838;37.292;2023-05-29T08:44:21;1.88;;;1.00;;
71800;SDS011;59647;55.838;37.292;2023-05-29T08:46:55;3.13;;;1.17;;
71800;SDS011;59647;55.838;37.292;2023-05-29T08:49:22;1.92;;;1.05;;
71800;SDS011;59647;55.838;37.292;2023-05-29T08:51:52;2.28;;;0.80;;
71800;SDS011;59647;55.838;37.292;2023-05-29T08:54:30;1.92;;;0.80;;
71800;SDS011;59647;55.838;37.292;2023-05-29T08:56:58;3.38;;;0.80;;
71800;SDS011;59647;55.838;37.292;2023-05-29T08:59:27;5.03;;;0.80;;
71800;SDS011;59647;55.838;37.292;2023-05-29T09:01:56;2.55;;;1.02;;
71800;SDS011;59647;55.838;37.292;2023-05-29T09:04:23;2.30;;;0.70;;
71800;SDS011;59647;55.838;37.292;2023-05-29T09:06:50;1.35;;;0.70;;
71800;SDS011;59647;55.838;37.292;2023-05-29T09:09:18;3.08;;;0.80;;
71800;SDS011;59647;55.838;37.292;2023-05-29T09:11:44;2.65;;;0.90;;
71800;SDS011;59647;55.838;37.292;2023-05-29T09:17:02;3.00;;;0.90;;
71800;SDS011;59647;55.838;37.292;2023-05-29T09:19:29;9.52;;;1.38;;
71800;SDS011;59647;55.838;37.292;2023-05-29T09:22:05;4.30;;;1.08;;
71800;SDS011;59647;55.838;37.292;2023-05-29T09:24:34;3.15;;;1.25;;
71800;SDS011;59647;55.838;37.292;2023-05-29T09:27:03;2.65;;;1.05;;
71800;SDS011;59647;55.838;37.292;2023-05-29T09:29:47;5.20;;;1.00;;
71800;SDS011;59647;55.838;37.292;2023-05-29T09:32:14;7.22;;;1.25;;
71800;SDS011;59647;55.838;37.292;2023-05-29T09:34:46;1.88;;;0.98;;
71800;SDS011;59647;55.838;37.292;2023-05-29T09:37:13;2.00;;;0.90;;
71800;SDS011;59647;55.838;37.292;2023-05-29T09:39:49;4.82;;;1.10;;
71800;SDS011;59647;55.838;37.292;2023-05-29T09:42:17;2.22;;;0.82;;
71800;SDS011;59647;55.838;37.292;2023-05-29T09:44:50;2.65;;;0.70;;
71800;SDS011;59647;55.838;37.292;2023-05-29T09:47:19;7.18;;;0.90;;
71800;SDS011;59647;55.838;37.292;2023-05-29T09:49:46;0.90;;;0.60;;
71800;SDS011;59647;55.838;37.292;2023-05-29T09:52:14;4.47;;;0.80;;
71800;SDS011;59647;55.838;37.292;2023-05-29T09:54:42;1.65;;;0.70;;
71800;SDS011;59647;55.838;37.292;2023-05-29T09:57:12;2.13;;;1.00;;
71800;SDS011;59647;55.838;37.292;2023-05-29T09:59:41;4.20;;;0.90;;
71800;SDS011;59647;55.838;37.292;2023-05-29T10:02:16;2.75;;;0.95;;
71800;SDS011;59647;55.838;37.292;2023-05-29T10:04:43;1.92;;;0.73;;
71800;SDS011;59647;55.838;37.292;2023-05-29T10:07:12;4.10;;;0.90;;
71800;SDS011;59647;55.838;37.292;2023-05-29T10:09:46;1.70;;;0.70;;
71800;SDS011;59647;55.838;37.292;2023-05-29T10:12:16;5.82;;;0.90;;
71800;SDS011;59647;55.838;37.292;2023-05-29T10:14:46;3.85;;;1.30;;
71800;SDS011;59647;55.838;37.292;2023-05-29T10:17:15;4.75;;;0.80;;
71800;SDS011;59647;55.838;37.292;2023-05-29T10:19:48;1.35;;;0.80;;
71800;SDS011;59647;55.838;37.292;2023-05-29T10:22:20;1.92;;;0.80;;
71800;SDS011;59647;55.838;37.292;2023-05-29T10:24:49;1.92;;;0.98;;
71800;SDS011;59647;55.838;37.292;2023-05-29T10:27:16;1.63;;;0.77;;
71800;SDS011;59647;55.838;37.292;2023-05-29T10:29:53;6.32;;;1.00;;
71800;SDS011;59647;55.838;37.292;2023-05-29T10:33:19;1.67;;;0.70;;
71800;SDS011;59647;55.838;37.292;2023-05-29T10:35:53;2.63;;;1.10;;
71800;SDS011;59647;55.838;37.292;2023-05-29T10:38:28;2.00;;;0.98;;
71800;SDS011;59647;55.838;37.292;2023-05-29T10:40:56;2.28;;;1.10;;
71800;SDS011;59647;55.838;37.292;2023-05-29T10:43:42;2.05;;;0.82;;
71800;SDS011;59647;55.838;37.292;2023-05-29T10:46:09;1.52;;;0.90;;
71800;SDS011;59647;55.838;37.292;2023-05-29T10:48:36;7.05;;;0.70;;
71800;SDS011;59647;55.838;37.292;2023-05-29T10:51:02;3.00;;;0.75;;
71800;SDS011;59647;55.838;37.292;2023-05-29T10:53:35;3.28;;;1.00;;
71800;SDS011;59647;55.838;37.292;2023-05-29T10:56:08;2.45;;;0.82;;
71800;SDS011;59647;55.838;37.292;2023-05-29T10:58:37;3.90;;;0.80;;
71800;SDS011;59647;55.838;37.292;2023-05-29T11:01:04;15.20;;;1.08;;
71800;SDS011;59647;55.838;37.292;2023-05-29T11:03:30;1.48;;;0.90;;
71800;SDS011;59647;55.838;37.292;2023-05-29T11:05:58;1.55;;;0.85;;
71800;SDS011;59647;55.838;37.292;2023-05-29T11:11:33;1.98;;;0.90;;
71800;SDS011;59647;55.838;37.292;2023-05-29T11:14:06;5.60;;;1.10;;
71800;SDS011;59647;55.838;37.292;2023-05-29T11:16:36;4.10;;;1.10;;
71800;SDS011;59647;55.838;37.292;2023-05-29T11:19:08;1.85;;;0.90;;
71800;SDS011;59647;55.838;37.292;2023-05-29T11:24:15;3.47;;;1.40;;
71800;SDS011;59647;55.838;37.292;2023-05-29T11:26:52;3.05;;;1.02;;
71800;SDS011;59647;55.838;37.292;2023-05-29T11:29:27;3.28;;;1.25;;
71800;SDS011;59647;55.838;37.292;2023-05-29T11:31:59;3.97;;;1.00;;
71800;SDS011;59647;55.838;37.292;2023-05-29T11:34:49;2.17;;;1.00;;
71800;SDS011;59647;55.838;37.292;2023-05-29T11:37:42;1.38;;;0.88;;
71800;SDS011;59647;55.838;37.292;2023-05-29T11:40:12;1.98;;;0.98;;
71800;SDS011;59647;55.838;37.292;2023-05-29T11:42:41;2.60;;;1.00;;
71800;SDS011;59647;55.838;37.292;2023-05-29T11:45:19;3.78;;;0.90;;
71800;SDS011;59647;55.838;37.292;2023-05-29T11:47:54;2.28;;;0.88;;
71800;SDS011;59647;55.838;37.292;2023-05-29T11:50:27;5.43;;;1.00;;
71800;SDS011;59647;55.838;37.292;2023-05-29T11:52:56;2.75;;;1.25;;
71800;SDS011;59647;55.838;37.292;2023-05-29T11:55:24;4.00;;;1.15;;
71800;SDS011;59647;55.838;37.292;2023-05-29T11:58:00;17.80;;;1.70;;
71800;SDS011;59647;55.838;37.292;2023-05-29T12:00:30;1.83;;;0.93;;
71800;SDS011;59647;55.838;37.292;2023-05-29T12:03:04;2.95;;;0.90;;
71800;SDS011;59647;55.838;37.292;2023-05-29T12:05:44;4.22;;;0.80;;
71800;SDS011;59647;55.838;37.292;2023-05-29T12:08:15;1.77;;;0.82;;
71800;SDS011;59647;55.838;37.292;2023-05-29T12:10:47;3.67;;;1.27;;
71800;SDS011;59647;55.838;37.292;2023-05-29T12:13:20;2.35;;;0.90;;
71800;SDS011;59647;55.838;37.292;2023-05-29T12:15:51;2.27;;;1.20;;
71800;SDS011;59647;55.838;37.292;2023-05-29T12:18:28;2.03;;;0.88;;
71800;SDS011;59647;55.838;37.292;2023-05-29T12:21:03;10.98;;;1.77;;
71800;SDS011;59647;55.838;37.292;2023-05-29T12:23:32;8.43;;;1.17;;
71800;SDS011;59647;55.838;37.292;2023-05-29T12:26:02;1.92;;;1.20;;
71800;SDS011;59647;55.838;37.292;2023-05-29T12:28:30;2.67;;;1.17;;
71800;SDS011;59647;55.838;37.292;2023-05-29T12:30:58;3.28;;;0.90;;
71800;SDS011;59647;55.838;37.292;2023-05-29T12:33:31;3.60;;;0.82;;
71800;SDS011;59647;55.838;37.292;2023-05-29T12:36:04;3.70;;;1.10;;
71800;SDS011;59647;55.838;37.292;2023-05-29T12:38:33;2.13;;;1.10;;
71800;SDS011;59647;55.838;37.292;2023-05-29T12:41:01;2.17;;;0.95;;
71800;SDS011;59647;55.838;37.292;2023-05-29T12:43:31;3.33;;;1.00;;
71800;SDS011;59647;55.838;37.292;2023-05-29T12:46:01;2.70;;;1.20;;
71800;SDS011;59647;55.838;37.292;2023-05-29T12:48:30;2.38;;;1.05;;
71800;SDS011;59647;55.838;37.292;2023-05-29T12:50:58;2.10;;;1.17;;
71800;SDS011;59647;55.838;37.292;2023-05-29T12:53:27;3.95;;;1.00;;
71800;SDS011;59647;55.838;37.292;2023-05-29T12:55:54;2.00;;;1.05;;
71800;SDS011;59647;55.838;37.292;2023-05-29T12:58:23;1.60;;;0.90;;
71800;SDS011;59647;55.838;37.292;2023-05-29T13:00:52;4.15;;;0.80;;
71800;SDS011;59647;55.838;37.292;2023-05-29T13:03:21;2.50;;;0.93;;
71800;SDS011;59647;55.838;37.292;2023-05-29T13:05:51;5.03;;;1.00;;
71800;SDS011;59647;55.838;37.292;2023-05-29T13:08:21;2.05;;;0.98;;
71800;SDS011;59647;55.838;37.292;2023-05-29T13:10:47;3.80;;;0.88;;
71800;SDS011;59647;55.838;37.292;2023-05-29T13:13:13;4.10;;;1.20;;
71800;SDS011;59647;55.838;37.292;2023-05-29T13:15:40;2.15;;;0.88;;
71800;SDS011;59647;55.838;37.292;2023-05-29T13:18:07;3.78;;;1.40;;
71800;SDS011;59647;55.838;37.292;2023-05-29T13:20:33;3.08;;;1.10;;
71800;SDS011;59647;55.838;37.292;2023-05-29T13:23:00;2.53;;;1.00;;
71800;SDS011;59647;55.838;37.292;2023-05-29T13:25:28;2.70;;;1.00;;
71800;SDS011;59647;55.838;37.292;2023-05-29T13:27:54;4.45;;;1.40;;
71800;SDS011;59647;55.838;37.292;2023-05-29T13:30:22;2.72;;;0.88;;
71800;SDS011;59647;55.838;37.292;2023-05-29T13:32:50;3.10;;;1.10;;
71800;SDS011;59647;55.838;37.292;2023-05-29T13:35:17;3.17;;;1.23;;
71800;SDS011;59647;55.838;37.292;2023-05-29T13:37:43;7.03;;;1.10;;
71800;SDS011;59647;55.838;37.292;2023-05-29T13:40:09;3.33;;;1.20;;
71800;SDS011;59647;55.838;37.292;2023-05-29T13:42:39;2.42;;;1.13;;
71800;SDS011;59647;55.838;37.292;2023-05-29T13:45:06;8.07;;;1.30;;
71800;SDS011;59647;55.838;37.292;2023-05-29T13:47:35;8.27;;;1.20;;
71800;SDS011;59647;55.838;37.292;2023-05-29T13:50:02;3.03;;;1.10;;
71800;SDS011;59647;55.838;37.292;2023-05-29T13:52:33;1.48;;;0.63;;
71800;SDS011;59647;55.838;37.292;2023-05-29T13:54:59;4.82;;;0.95;;
71800;SDS011;59647;55.838;37.292;2023-05-29T13:57:31;2.90;;;1.00;;
71800;SDS011;59647;55.838;37.292;2023-05-29T14:00:00;2.33;;;1.05;;
71800;SDS011;59647;55.838;37.292;2023-05-29T14:02:26;5.50;;;1.35;;
71800;SDS011;59647;55.838;37.292;2023-05-29T14:04:53;2.05;;;0.90;;
71800;SDS011;59647;55.838;37.292;2023-05-29T14:07:19;2.15;;;0.90;;
71800;SDS011;59647;55.838;37.292;2023-05-29T14:09:45;4.72;;;0.82;;
71800;SDS011;59647;55.838;37.292;2023-05-29T14:12:11;3.25;;;1.10;;
71800;SDS011;59647;55.838;37.292;2023-05-29T14:14:37;3.55;;;1.05;;
71800;SDS011;59647;55.838;37.292;2023-05-29T14:17:05;2.70;;;1.38;;
71800;SDS011;59647;55.838;37.292;2023-05-29T14:19:31;2.50;;;1.05;;
71800;SDS011;59647;55.838;37.292;2023-05-29T14:21:59;9.88;;;1.25;;
71800;SDS011;59647;55.838;37.292;2023-05-29T14:24:26;2.20;;;0.95;;
71800;SDS011;59647;55.838;37.292;2023-05-29T14:26:52;8.27;;;1.15;;
71800;SDS011;59647;55.838;37.292;2023-05-29T14:29:18;3.70;;;1.05;;
71800;SDS011;59647;55.838;37.292;2023-05-29T14:31:44;5.63;;;1.05;;
71800;SDS011;59647;55.838;37.292;2023-05-29T14:34:11;2.45;;;1.08;;
71800;SDS011;59647;55.838;37.292;2023-05-29T14:36:37;2.78;;;1.05;;
71800;SDS011;59647;55.838;37.292;2023-05-29T14:39:03;5.47;;;1.05;;
71800;SDS011;59647;55.838;37.292;2023-05-29T14:41:30;2.35;;;1.00;;
71800;SDS011;59647;55.838;37.292;2023-05-29T14:43:57;5.15;;;1.10;;
71800;SDS011;59647;55.838;37.292;2023-05-29T14:46:24;2.17;;;0.95;;
71800;SDS011;59647;55.838;37.292;2023-05-29T14:48:51;3.03;;;1.67;;
71800;SDS011;59647;55.838;37.292;2023-05-29T14:51:20;6.47;;;1.10;;
71800;SDS011;59647;55.838;37.292;2023-05-29T14:53:46;2.28;;;1.05;;
71800;SDS011;59647;55.838;37.292;2023-05-29T14:56:12;3.55;;;1.20;;
71800;SDS011;59647;55.838;37.292;2023-05-29T14:58:39;5.43;;;1.27;;
71800;SDS011;59647;55.838;37.292;2023-05-29T15:01:09;4.38;;;1.17;;
71800;SDS011;59647;55.838;37.292;2023-05-29T15:03:35;2.38;;;1.00;;
71800;SDS011;59647;55.838;37.292;2023-05-29T15:06:02;5.50;;;0.93;;
71800;SDS011;59647;55.838;37.292;2023-05-29T15:08:29;3.25;;;0.95;;
71800;SDS011;59647;55.838;37.292;2023-05-29T15:11:01;2.80;;;0.95;;